Litchfield, Maine
Current Conditions -  °F | °C
As of 12:53 PM on Thursday 30 Oct 2014 (Local Time) from KAUG Reporting Station
Overcast Overcast  
Wind Chill: 51°   Ceiling: 9000
Heat Index: 51°   Visibility: 10mi
Dew Point: 39°   Wind: 8mph
Humidity: 63%   Direction: 310°NW
Pressure: 29.88"   Gusts: NA
Location:  44.22°N, 69.94°W
Report Text: KAUG 301653Z AUTO 31007KT 10SM FEW032 OVC090 11/04 A2988 RMK AO2 SLP121 T01060039
Loading
Personal Weather Stations






























Interactive Weather Map
Tropical Storm Tracking
New forecast layout! Learn more

10-Day Weather Forecast

Advertisements
Track Severe Weather on mobile